Airfield :
LOGIN :

Register | Disclaimer

   EN    FR    IT 

 










Legend :    VFR   Marginal VFR   IFR   Intensive IFR   Very Intensive IFR
Visi :
Ceiling :
>= 8 km
>= 3000ft
5 to 8 km
1000 to 3000 ft
1500m to 5 km
500 to 1000 ft
800 to 1500m
200 to 500 ft
< 800m
< 200 ft
Symbols :   Thunderstorms  Fog  Heavy snow  Heavy precipitations  Wind > 20 kt
SIGMETs :     Misc.  Thunderstorms  Icing  Turbulence  Mountain Waves  Volcanic Ashes






- Airport Elevation : 12 ft
- IATA code : CQF


LFAC - Calais

CURRENT METAR :
  • 281930Z AUTO 26015KT 9999 FEW034 SCT086 OVC110 12/07 Q1005

EXPIRED METARs :
  • 281900Z AUTO 26015KT 9999 ///TCU 12/08 Q1005
  • 281830Z AUTO 26013KT 9999 ///CB 11/08 Q1005
  • 281800Z AUTO 24014KT 9999 FEW020/// BKN060/// BKN074/// ///CB 11/09 Q1004
  • 281730Z AUTO 21008KT 9999 FEW026/// SCT037/// BKN068/// ///CB 11/09 Q1004
  • 281700Z AUTO 21009KT 9999 FEW029/// BKN034/// BKN042/// ///TCU 10/09 Q1004
  • 281630Z AUTO 21010KT 9999 FEW037/// BKN054/// OVC068/// ///CB 11/09 Q1004

TAF N/A
ATIS : +33 3 21 00 11 14



MET'MAP, your aeronautical weather chart ! - Copyright ORBIFLY December 2007 - Disclaimer

ORBIFLY MET'MAP TEAM :

Programming & Development : Alexandra Zaïnal
Concept & original design : Baudouin d'Aumeries
Assistance for programming : Marc-Olivier Méhu
Technical & hardware support : Manuel Goepfert

Contact : metmap@orbifly.com




SOURCES & CREDITS :

   NOAA